Time;durP1;ratioP1;P1;durP2;ratioP2;P2;SDS_P1;SDS_P2;PMS_P1;PMS_P2;Temp;Humidity;BMP_temperature;BMP_pressure;BME280_temperature;BME280_humidity;BME280_pressure;Samples;Min_cycle;Max_cycle;Signal;HPM_P1;HPM_P2
2021/09/29 00:01:08;;;;;;;7.23;2.83;;;14.40;71.30;;;;;;2626782;30;20402;-78
2021/09/29 00:03:34;;;;;;;4.00;2.60;;;14.30;69.80;;;;;;2627477;38;20383;-78
2021/09/29 00:06:06;;;;;;;5.67;3.50;;;14.40;70.20;;;;;;2627856;30;20367;-78
2021/09/29 00:08:32;;;;;;;8.13;3.20;;;14.30;70.20;;;;;;2626455;30;20376;-78
2021/09/29 00:11:16;;;;;;;7.83;2.53;;;14.30;70.20;;;;;;2626722;30;20459;-78
2021/09/29 00:13:48;;;;;;;14.43;3.43;;;14.30;70.30;;;;;;2626746;38;20202;-78
2021/09/29 00:16:14;;;;;;;7.40;3.87;;;14.20;70.40;;;;;;2627328;30;20554;-77
2021/09/29 00:18:41;;;;;;;7.10;3.07;;;14.00;70.60;;;;;;2629170;30;20410;-79
2021/09/29 00:21:08;;;;;;;4.90;3.07;;;14.40;70.30;;;;;;2626912;30;20193;-77
2021/09/29 00:23:39;;;;;;;3.00;2.70;;;14.30;70.20;;;;;;2628610;30;20904;-78
2021/09/29 00:26:05;;;;;;;3.83;2.80;;;14.30;70.00;;;;;;2627745;38;21511;-77
2021/09/29 00:28:33;;;;;;;5.23;2.77;;;14.10;70.20;;;;;;2626773;30;20474;-78
2021/09/29 00:31:05;;;;;;;8.33;3.00;;;14.00;70.20;;;;;;2627877;38;20225;-78
2021/09/29 00:33:34;;;;;;;5.70;3.07;;;14.20;70.00;;;;;;2625998;30;20410;-78
2021/09/29 00:36:02;;;;;;;7.03;3.30;;;14.20;69.80;;;;;;2627069;38;20383;-78
2021/09/29 00:38:31;;;;;;;6.80;3.00;;;14.20;69.70;;;;;;2629157;30;20423;-78
2021/09/29 00:40:58;;;;;;;4.87;2.70;;;14.30;69.80;;;;;;2629022;30;20482;-77
2021/09/29 00:43:28;;;;;;;7.50;3.23;;;14.10;69.50;;;;;;2626814;30;20944;-78
2021/09/29 00:45:54;;;;;;;4.97;2.67;;;14.30;69.50;;;;;;2628421;30;20414;-77
2021/09/29 00:48:20;;;;;;;4.63;2.60;;;14.00;69.60;;;;;;2628103;30;20955;-77
2021/09/29 00:50:46;;;;;;;5.50;2.30;;;13.70;70.30;;;;;;2629471;30;22738;-77
2021/09/29 00:53:12;;;;;;;9.00;2.80;;;13.70;70.80;;;;;;2627303;30;20190;-78
2021/09/29 00:55:38;;;;;;;8.37;3.10;;;13.70;70.90;;;;;;2628864;30;20387;-77
2021/09/29 00:58:04;;;;;;;6.93;3.03;;;13.90;70.40;;;;;;2628264;38;20395;-77
2021/09/29 01:00:35;;;;;;;7.50;2.50;;;14.10;69.90;;;;;;2628571;30;20198;-78
2021/09/29 01:03:03;;;;;;;5.43;2.60;;;14.00;70.30;;;;;;2626909;30;20210;-78
2021/09/29 01:05:30;;;;;;;9.03;2.60;;;14.00;70.00;;;;;;2626746;30;20446;-78
2021/09/29 01:08:03;;;;;;;3.97;2.80;;;14.00;69.90;;;;;;2626807;30;21451;-77
2021/09/29 01:10:54;;;;;;;5.93;2.53;;;13.90;70.00;;;;;;2627411;30;21032;-77
2021/09/29 01:13:25;;;;;;;3.60;2.60;;;13.70;70.30;;;;;;2627431;38;20406;-78
2021/09/29 01:15:58;;;;;;;6.10;3.00;;;13.60;70.80;;;;;;2626329;30;21068;-78
2021/09/29 01:18:27;;;;;;;5.67;3.10;;;13.50;70.80;;;;;;2628512;30;20949;-77
2021/09/29 01:21:00;;;;;;;5.20;2.60;;;13.50;71.00;;;;;;2628347;30;20368;-77
2021/09/29 01:24:01;;;;;;;11.00;2.93;;;13.60;70.70;;;;;;2627027;38;20390;-77
2021/09/29 01:26:31;;;;;;;5.10;2.47;;;13.60;70.60;;;;;;2627581;30;20394;-78
2021/09/29 01:29:04;;;;;;;6.37;2.47;;;13.60;70.90;;;;;;2627751;30;20394;-78
2021/09/29 01:31:32;;;;;;;5.33;2.30;;;13.60;70.70;;;;;;2627467;30;21206;-77
2021/09/29 01:33:59;;;;;;;9.90;3.43;;;13.50;70.80;;;;;;2626627;30;20435;-78
2021/09/29 01:36:27;;;;;;;4.63;2.77;;;13.40;71.10;;;;;;2628307;30;20801;-79
2021/09/29 01:38:55;;;;;;;5.70;2.70;;;13.50;71.10;;;;;;2627661;30;20466;-77
2021/09/29 01:41:24;;;;;;;8.77;3.53;;;13.50;70.80;;;;;;2628169;30;20508;-78
2021/09/29 01:43:50;;;;;;;7.73;2.83;;;13.60;71.00;;;;;;2625286;38;20383;-78
2021/09/29 01:46:16;;;;;;;7.00;3.77;;;13.80;70.70;;;;;;2627794;30;20402;-78
2021/09/29 01:49:04;;;;;;;9.83;2.70;;;13.50;70.50;;;;;;2627847;30;20402;-78
2021/09/29 01:51:34;;;;;;;11.97;3.10;;;13.50;70.70;;;;;;2624857;38;20394;-78
2021/09/29 01:54:01;;;;;;;3.30;2.40;;;13.50;71.00;;;;;;2626252;30;20385;-77
2021/09/29 01:56:27;;;;;;;5.57;2.80;;;13.50;71.00;;;;;;2625828;38;20454;-78
2021/09/29 01:58:54;;;;;;;3.90;2.50;;;13.40;71.10;;;;;;2627803;30;20386;-78
2021/09/29 02:01:21;;;;;;;6.47;2.53;;;13.50;70.60;;;;;;2628223;30;20379;-79
2021/09/29 02:03:48;;;;;;;7.17;2.40;;;13.50;71.00;;;;;;2626549;38;20379;-78
2021/09/29 02:06:14;;;;;;;5.50;2.90;;;13.50;70.70;;;;;;2626892;30;20383;-78
2021/09/29 02:08:42;;;;;;;4.00;3.10;;;13.70;70.60;;;;;;2625716;38;20413;-77
2021/09/29 02:11:08;;;;;;;4.13;2.97;;;13.70;70.60;;;;;;2625497;30;20517;-78
2021/09/29 02:13:33;;;;;;;5.77;2.70;;;13.60;70.60;;;;;;2626585;38;20415;-78
2021/09/29 02:15:59;;;;;;;5.30;3.37;;;13.40;70.80;;;;;;2624771;30;20193;-78
2021/09/29 02:18:27;;;;;;;8.03;2.60;;;13.70;70.60;;;;;;2628236;30;20708;-78
2021/09/29 02:20:53;;;;;;;3.00;2.77;;;13.60;70.00;;;;;;2628227;30;20344;-78
2021/09/29 02:23:21;;;;;;;5.83;3.00;;;13.60;70.50;;;;;;2627035;30;20413;-77
2021/09/29 02:25:47;;;;;;;8.13;3.10;;;13.70;70.70;;;;;;2627454;30;20398;-78
2021/09/29 02:28:19;;;;;;;10.50;2.80;;;13.70;70.80;;;;;;2626000;30;20391;-80
2021/09/29 02:30:45;;;;;;;3.07;2.67;;;13.90;70.10;;;;;;2628027;30;20486;-78
2021/09/29 02:33:11;;;;;;;6.77;3.20;;;13.80;70.60;;;;;;2627448;38;20423;-78
2021/09/29 02:35:37;;;;;;;4.00;2.73;;;13.70;70.20;;;;;;2625191;38;20201;-78
2021/09/29 02:38:03;;;;;;;8.23;3.40;;;14.00;70.30;;;;;;2625806;30;20724;-77
2021/09/29 02:40:30;;;;;;;5.90;2.97;;;14.00;70.10;;;;;;2624494;30;20385;-78
2021/09/29 02:42:57;;;;;;;3.47;2.73;;;13.90;70.00;;;;;;2624811;30;20963;-77
2021/09/29 02:45:30;;;;;;;4.10;2.53;;;13.90;70.00;;;;;;2626369;30;20946;-79
2021/09/29 02:47:56;;;;;;;5.47;2.70;;;14.10;69.70;;;;;;2626268;30;20413;-76
2021/09/29 02:50:22;;;;;;;4.10;2.83;;;14.00;69.30;;;;;;2625905;38;20399;-77
2021/09/29 02:52:47;;;;;;;6.10;2.60;;;14.10;69.80;;;;;;2624728;30;20269;-77
2021/09/29 02:55:13;;;;;;;5.67;2.60;;;13.70;70.50;;;;;;2627039;38;20197;-77
2021/09/29 02:57:40;;;;;;;5.13;2.33;;;13.60;70.40;;;;;;2627057;38;20210;-77
2021/09/29 03:00:06;;;;;;;11.73;3.57;;;13.70;70.30;;;;;;2626959;30;20270;-77
2021/09/29 03:02:34;;;;;;;5.77;2.10;;;13.90;70.00;;;;;;2627464;30;20379;-78
2021/09/29 03:05:02;;;;;;;5.63;2.33;;;13.90;70.20;;;;;;2625943;38;20387;-78
2021/09/29 03:07:30;;;;;;;6.37;3.17;;;13.90;69.50;;;;;;2626564;38;20386;-77
2021/09/29 03:09:55;;;;;;;5.47;3.17;;;13.90;69.50;;;;;;2626556;30;20421;-76
2021/09/29 03:12:21;;;;;;;4.70;2.50;;;14.00;69.60;;;;;;2627931;38;20408;-77
2021/09/29 03:14:47;;;;;;;5.50;3.60;;;14.10;69.50;;;;;;2626844;30;20202;-78
2021/09/29 03:17:12;;;;;;;6.10;3.40;;;14.30;68.80;;;;;;2627178;30;20221;-78
2021/09/29 03:19:38;;;;;;;9.07;3.37;;;14.30;68.90;;;;;;2628892;30;20289;-77
2021/09/29 03:22:04;;;;;;;8.73;4.00;;;13.90;69.20;;;;;;2627872;30;20986;-77
2021/09/29 03:24:30;;;;;;;5.10;3.37;;;13.70;69.40;;;;;;2628928;30;20198;-78
2021/09/29 03:26:56;;;;;;;5.27;3.60;;;13.90;69.60;;;;;;2628672;30;20391;-78
2021/09/29 03:29:23;;;;;;;4.33;3.33;;;14.00;69.00;;;;;;2627261;30;20411;-78
2021/09/29 03:31:49;;;;;;;4.10;3.70;;;13.80;69.20;;;;;;2630051;30;20197;-78
2021/09/29 03:34:15;;;;;;;7.70;3.10;;;13.70;69.80;;;;;;2630337;30;21238;-76
2021/09/29 03:36:41;;;;;;;6.40;3.77;;;13.70;69.40;;;;;;2627350;30;20414;-77
2021/09/29 03:39:06;;;;;;;4.53;3.57;;;13.80;69.60;;;;;;2627731;30;20213;-77
2021/09/29 03:41:33;;;;;;;5.70;3.63;;;13.70;69.20;;;;;;2627677;30;20752;-76
2021/09/29 03:43:59;;;;;;;6.90;3.67;;;13.80;69.20;;;;;;2628102;38;20194;-76
2021/09/29 03:46:25;;;;;;;5.90;3.83;;;13.90;69.00;;;;;;2628374;30;20422;-77
2021/09/29 03:48:51;;;;;;;4.47;3.50;;;13.90;68.80;;;;;;2627689;38;20190;-78
2021/09/29 03:51:18;;;;;;;8.00;3.80;;;14.00;68.70;;;;;;2629647;30;20228;-76
2021/09/29 03:53:45;;;;;;;6.40;3.93;;;13.80;68.60;;;;;;2628665;30;20277;-77
2021/09/29 03:56:10;;;;;;;4.90;4.43;;;13.90;69.10;;;;;;2628168;30;20495;-77
2021/09/29 03:58:36;;;;;;;8.23;3.83;;;14.00;68.50;;;;;;2629848;30;20703;-76
2021/09/29 04:01:02;;;;;;;5.57;3.40;;;14.10;68.50;;;;;;2627879;38;20863;-76
2021/09/29 04:03:28;;;;;;;5.03;3.37;;;13.90;68.50;;;;;;2630315;30;20606;-77
2021/09/29 04:05:54;;;;;;;6.40;4.10;;;13.90;68.70;;;;;;2628976;30;22029;-76
2021/09/29 04:08:20;;;;;;;7.00;4.73;;;14.00;68.60;;;;;;2628752;30;20441;-78
2021/09/29 04:10:45;;;;;;;5.47;3.43;;;14.00;68.60;;;;;;2626296;38;20212;-77
2021/09/29 04:13:11;;;;;;;4.87;3.73;;;13.90;68.90;;;;;;2628705;30;20585;-77
2021/09/29 04:15:37;;;;;;;4.67;3.87;;;13.90;68.80;;;;;;2626917;38;20206;-78
2021/09/29 04:18:03;;;;;;;7.83;3.17;;;13.90;68.70;;;;;;2627801;30;20242;-77
2021/09/29 04:20:30;;;;;;;4.00;3.00;;;13.80;68.70;;;;;;2629664;30;20379;-76
2021/09/29 04:22:56;;;;;;;6.10;3.00;;;13.80;69.00;;;;;;2627568;30;20383;-77
2021/09/29 04:25:22;;;;;;;3.40;3.00;;;13.90;68.90;;;;;;2628019;30;20395;-78
2021/09/29 04:27:48;;;;;;;5.50;3.13;;;14.00;68.60;;;;;;2628254;30;20201;-77
2021/09/29 04:30:14;;;;;;;6.03;3.70;;;14.00;68.30;;;;;;2628207;30;20391;-77
2021/09/29 04:32:44;;;;;;;4.83;2.90;;;13.90;68.60;;;;;;2627190;38;20407;-77
2021/09/29 04:35:19;;;;;;;5.73;3.67;;;13.90;68.80;;;;;;2628115;30;20387;-77
2021/09/29 04:37:47;;;;;;;6.80;3.40;;;14.00;68.70;;;;;;2629039;30;20383;-77
2021/09/29 04:40:13;;;;;;;8.73;2.97;;;13.90;68.60;;;;;;2627746;30;20934;-78
2021/09/29 04:42:39;;;;;;;5.30;3.33;;;13.70;68.80;;;;;;2629201;30;20391;-78
2021/09/29 04:45:06;;;;;;;3.80;3.50;;;13.80;68.90;;;;;;2628662;30;20241;-79
2021/09/29 04:47:34;;;;;;;6.73;3.50;;;13.70;69.10;;;;;;2628964;30;20684;-77
2021/09/29 04:50:00;;;;;;;4.80;3.00;;;13.80;69.10;;;;;;2627984;30;20386;-78
2021/09/29 04:52:27;;;;;;;6.37;3.70;;;13.80;69.00;;;;;;2628483;30;20887;-76
2021/09/29 04:55:00;;;;;;;5.77;3.10;;;13.70;69.00;;;;;;2628024;30;20414;-75
2021/09/29 04:57:46;;;;;;;5.17;3.20;;;13.60;69.70;;;;;;2627603;30;20368;-79
2021/09/29 05:00:12;;;;;;;4.03;3.40;;;13.70;69.70;;;;;;2627235;30;20413;-80
2021/09/29 05:02:42;;;;;;;6.80;3.60;;;13.50;69.90;;;;;;2627422;30;21121;-77
2021/09/29 05:05:09;;;;;;;3.87;3.40;;;13.60;70.00;;;;;;2626412;38;20451;-78
2021/09/29 05:07:38;;;;;;;5.53;3.67;;;13.60;70.00;;;;;;2627352;38;20362;-77
2021/09/29 05:10:05;;;;;;;6.60;3.20;;;13.50;70.20;;;;;;2626695;30;20389;-76
2021/09/29 05:12:32;;;;;;;9.37;3.30;;;13.50;70.00;;;;;;2628263;30;20759;-77
2021/09/29 05:14:58;;;;;;;7.83;4.10;;;13.60;70.10;;;;;;2628428;30;20370;-77
2021/09/29 05:17:25;;;;;;;9.03;3.80;;;13.50;70.00;;;;;;2626621;30;20586;-80
2021/09/29 05:19:58;;;;;;;7.60;3.80;;;13.60;70.30;;;;;;2628026;38;20954;-78
2021/09/29 05:22:24;;;;;;;10.53;5.10;;;13.60;70.10;;;;;;2629786;30;20362;-78
2021/09/29 05:24:50;;;;;;;4.40;3.70;;;13.50;70.10;;;;;;2626868;30;20390;-77
2021/09/29 05:27:16;;;;;;;5.93;3.70;;;13.60;70.30;;;;;;2628288;30;20920;-77
2021/09/29 05:29:49;;;;;;;15.50;4.60;;;13.30;70.30;;;;;;2626941;30;20752;-78
2021/09/29 05:32:15;;;;;;;7.53;4.27;;;13.20;70.80;;;;;;2626505;30;20197;-78
2021/09/29 05:34:42;;;;;;;7.03;3.77;;;13.30;70.80;;;;;;2626774;30;20414;-78
2021/09/29 05:37:18;;;;;;;6.10;4.07;;;13.40;70.90;;;;;;2628006;30;20419;-81
2021/09/29 05:39:45;;;;;;;4.93;3.93;;;13.60;70.40;;;;;;2627288;30;20848;-79
2021/09/29 05:42:34;;;;;;;6.77;4.17;;;13.60;70.30;;;;;;2626655;38;20386;-80
2021/09/29 05:45:02;;;;;;;6.37;4.30;;;13.30;70.20;;;;;;2625962;30;20389;-79
2021/09/29 05:47:29;;;;;;;6.00;4.40;;;13.40;70.20;;;;;;2625110;30;20425;-79
2021/09/29 05:49:56;;;;;;;13.63;5.30;;;13.50;70.20;;;;;;2626523;38;20379;-82
2021/09/29 05:52:23;;;;;;;7.00;3.00;;;13.50;69.80;;;;;;2625003;30;20422;-79
2021/09/29 05:54:49;;;;;;;2.93;2.63;;;13.60;70.00;;;;;;2623875;38;20433;-81
2021/09/29 05:57:16;;;;;;;8.47;3.23;;;13.50;69.80;;;;;;2625508;31;20981;-80
2021/09/29 05:59:51;;;;;;;10.70;3.90;;;13.60;69.80;;;;;;2623847;30;20738;-80
2021/09/29 06:02:17;;;;;;;11.00;4.20;;;13.70;69.80;;;;;;2626603;30;20413;-81
2021/09/29 06:04:43;;;;;;;4.77;3.57;;;13.80;69.20;;;;;;2623787;38;21114;-81
2021/09/29 06:07:38;;;;;;;7.53;3.90;;;14.00;69.00;;;;;;2625766;30;20386;-81
2021/09/29 06:10:13;;;;;;;11.30;3.53;;;14.30;68.50;;;;;;2625456;30;20703;-79
2021/09/29 06:12:38;;;;;;;7.13;3.43;;;14.10;68.50;;;;;;2623286;30;20408;-81
2021/09/29 06:15:05;;;;;;;7.10;3.40;;;14.30;67.70;;;;;;2625240;30;20406;-79
2021/09/29 06:17:42;;;;;;;5.87;4.07;;;14.70;67.20;;;;;;2624686;30;20200;-79
2021/09/29 06:20:17;;;;;;;4.23;3.30;;;14.80;66.20;;;;;;2623922;38;20905;-79
2021/09/29 06:22:44;;;;;;;6.13;4.07;;;15.20;65.40;;;;;;2624904;38;20406;-79
2021/09/29 06:25:11;;;;;;;3.50;3.20;;;15.40;64.60;;;;;;2624367;38;20419;-79
2021/09/29 06:27:36;;;;;;;6.43;3.30;;;15.70;63.80;;;;;;2624916;30;20397;-79
2021/09/29 06:30:04;;;;;;;6.03;3.10;;;16.00;63.40;;;;;;2625004;30;21014;-79
2021/09/29 06:32:30;;;;;;;5.20;3.20;;;15.90;63.90;;;;;;2624448;30;20201;-80
2021/09/29 06:34:55;;;;;;;3.57;3.00;;;16.40;62.60;;;;;;2625798;38;21016;-80
2021/09/29 06:37:23;;;;;;;8.67;3.20;;;16.10;63.00;;;;;;2626094;38;20225;-80
2021/09/29 06:39:49;;;;;;;5.23;3.20;;;16.00;64.40;;;;;;2626730;30;20202;-80
2021/09/29 06:42:19;;;;;;;5.47;3.27;;;15.80;64.20;;;;;;2625294;30;20406;-81
2021/09/29 06:44:45;;;;;;;6.97;2.57;;;15.90;64.30;;;;;;2626575;30;20232;-80
2021/09/29 06:47:11;;;;;;;3.13;2.77;;;15.90;64.40;;;;;;2625941;30;20367;-79
2021/09/29 06:49:38;;;;;;;5.27;3.53;;;16.10;64.50;;;;;;2625636;30;20452;-80
2021/09/29 06:52:05;;;;;;;6.77;3.40;;;16.00;64.50;;;;;;2627541;38;20198;-84
2021/09/29 06:54:35;;;;;;;7.30;3.33;;;15.50;65.80;;;;;;2628907;30;20386;-84
2021/09/29 06:57:07;;;;;;;3.10;2.80;;;15.40;68.60;;;;;;2626064;38;20394;-82
2021/09/29 06:59:35;;;;;;;5.27;3.60;;;15.00;69.80;;;;;;2627094;30;20787;-80
2021/09/29 07:02:02;;;;;;;3.97;2.93;;;14.70;70.90;;;;;;2626798;30;20874;-80
2021/09/29 07:04:35;;;;;;;5.50;3.50;;;14.70;72.40;;;;;;2626850;30;20383;-80
2021/09/29 07:07:04;;;;;;;7.63;2.97;;;14.80;72.10;;;;;;2626386;30;20371;-80
2021/09/29 07:09:31;;;;;;;9.80;3.20;;;14.60;72.60;;;;;;2627133;30;20512;-77
2021/09/29 07:11:56;;;;;;;12.30;3.63;;;14.60;72.40;;;;;;2625786;30;20818;-78
2021/09/29 07:14:22;;;;;;;9.30;3.50;;;14.30;73.10;;;;;;2624558;38;20431;-78
2021/09/29 07:16:48;;;;;;;9.00;3.57;;;14.20;73.90;;;;;;2624159;30;20205;-79
2021/09/29 07:19:14;;;;;;;5.87;3.80;;;14.00;74.10;;;;;;2623699;30;20647;-78
2021/09/29 07:21:39;;;;;;;4.93;3.40;;;14.00;74.90;;;;;;2625122;30;21022;-79
2021/09/29 07:24:05;;;;;;;4.87;3.50;;;14.00;75.80;;;;;;2624288;30;20386;-77
2021/09/29 07:26:33;;;;;;;6.17;3.53;;;14.10;75.00;;;;;;2625049;38;20718;-78
2021/09/29 07:28:59;;;;;;;5.47;3.40;;;14.10;75.40;;;;;;2624605;38;20379;-78
2021/09/29 07:31:25;;;;;;;5.60;3.80;;;14.10;75.40;;;;;;2625136;30;20525;-77
2021/09/29 07:33:51;;;;;;;10.90;4.03;;;13.90;75.60;;;;;;2623779;30;20406;-78
2021/09/29 07:36:17;;;;;;;7.47;3.40;;;13.80;75.90;;;;;;2625243;30;20202;-77
2021/09/29 07:38:44;;;;;;;5.97;3.80;;;14.00;75.90;;;;;;2625249;30;20763;-78
2021/09/29 07:41:16;;;;;;;5.40;3.20;;;14.00;76.20;;;;;;2624676;30;20194;-78
2021/09/29 07:43:41;;;;;;;6.30;3.50;;;13.90;76.80;;;;;;2624716;38;20462;-77
2021/09/29 07:46:08;;;;;;;5.03;3.40;;;13.80;76.80;;;;;;2623534;30;20402;-77
2021/09/29 07:48:33;;;;;;;7.50;2.60;;;13.80;76.80;;;;;;2624850;30;20220;-79
2021/09/29 07:51:01;;;;;;;6.53;3.40;;;13.90;76.70;;;;;;2626119;30;20367;-78
2021/09/29 07:53:27;;;;;;;5.40;3.80;;;13.90;75.80;;;;;;2626505;30;20378;-78
2021/09/29 07:55:56;;;;;;;3.57;3.20;;;14.00;76.40;;;;;;2626535;30;20512;-78
2021/09/29 07:58:24;;;;;;;12.87;3.93;;;13.90;75.90;;;;;;2629121;30;20398;-78
2021/09/29 08:00:51;;;;;;;4.63;3.30;;;14.00;76.40;;;;;;2625339;30;20443;-79
2021/09/29 08:03:17;;;;;;;6.77;4.10;;;14.40;76.00;;;;;;2627104;30;21267;-78
2021/09/29 08:05:45;;;;;;;8.40;3.27;;;14.80;75.20;;;;;;2625905;38;20462;-78
2021/09/29 08:08:12;;;;;;;5.87;3.70;;;14.90;74.70;;;;;;2626602;30;20367;-77
2021/09/29 08:10:38;;;;;;;7.67;3.30;;;14.90;75.00;;;;;;2629266;30;20428;-77
2021/09/29 08:13:03;;;;;;;10.20;3.03;;;14.80;76.60;;;;;;2626877;30;20409;-78
2021/09/29 08:15:30;;;;;;;7.17;3.33;;;14.80;74.60;;;;;;2627562;30;20198;-77
2021/09/29 08:17:56;;;;;;;7.67;2.97;;;14.50;75.90;;;;;;2626450;30;20186;-76
2021/09/29 08:20:23;;;;;;;4.10;3.10;;;14.50;76.30;;;;;;2625243;30;20406;-77
2021/09/29 08:23:04;;;;;;;3.67;3.30;;;14.30;76.00;;;;;;2626108;30;20741;-78
2021/09/29 08:31:00;;;;;;;5.00;3.93;;;14.10;77.10;;;;;;2626434;30;20229;-78
2021/09/29 08:33:45;;;;;;;6.63;3.00;;;14.10;77.80;;;;;;2627142;30;20362;-78
2021/09/29 08:38:48;;;;;;;9.77;3.60;;;14.40;75.80;;;;;;2625810;38;20447;-78
2021/09/29 08:44:06;;;;;;;4.80;3.87;;;14.50;77.70;;;;;;2624235;38;20391;-78
2021/09/29 08:47:00;;;;;;;5.33;3.07;;;14.50;78.10;;;;;;2627228;38;20408;-79
2021/09/29 08:53:18;;;;;;;8.73;4.10;;;14.30;78.50;;;;;;2624766;30;20419;-80
2021/09/29 08:56:03;;;;;;;6.73;5.27;;;14.20;78.30;;;;;;2623367;38;20450;-75
2021/09/29 09:18:52;;;;;;;7.00;3.97;;;14.20;80.50;;;;;;2626263;38;20831;-76
2021/09/29 09:21:28;;;;;;;6.43;3.60;;;14.20;80.60;;;;;;2625155;38;21189;-73
2021/09/29 09:24:20;;;;;;;8.37;4.23;;;14.10;80.70;;;;;;2623502;38;20496;-80
2021/09/29 09:29:16;;;;;;;9.50;3.50;;;14.20;80.40;;;;;;2629622;38;20977;-75
2021/09/29 09:31:44;;;;;;;8.47;4.07;;;14.50;80.00;;;;;;2628886;38;20386;-76
2021/09/29 09:34:10;;;;;;;7.83;4.00;;;14.50;79.80;;;;;;2629080;30;20413;-77
2021/09/29 09:36:39;;;;;;;4.27;3.13;;;14.30;79.90;;;;;;2629656;30;20400;-78
2021/09/29 09:39:15;;;;;;;5.57;4.00;;;14.40;80.30;;;;;;2629679;30;20208;-76
2021/09/29 09:41:52;;;;;;;11.13;4.37;;;14.40;80.50;;;;;;2629104;38;20377;-77
2021/09/29 09:44:31;;;;;;;6.60;4.10;;;14.50;80.50;;;;;;2629908;30;20407;-76
2021/09/29 09:47:08;;;;;;;4.93;3.33;;;14.70;80.30;;;;;;2629818;30;20371;-76
2021/09/29 09:50:04;;;;;;;6.50;4.57;;;14.80;80.30;;;;;;2629328;30;20478;-76
2021/09/29 09:52:36;;;;;;;7.13;4.70;;;14.90;79.90;;;;;;2628818;38;21228;-76
2021/09/29 09:55:11;;;;;;;4.00;3.17;;;14.80;79.00;;;;;;2628590;30;20463;-77
2021/09/29 09:57:55;;;;;;;6.47;4.10;;;14.70;79.10;;;;;;2630207;30;20934;-78
2021/09/29 10:00:34;;;;;;;3.47;2.97;;;14.60;79.00;;;;;;2629001;30;20447;-76
2021/09/29 10:03:02;;;;;;;3.73;2.87;;;14.00;79.60;;;;;;2627830;30;20405;-76
2021/09/29 10:05:41;;;;;;;3.67;3.00;;;13.60;79.30;;;;;;2629743;30;20892;-77
2021/09/29 10:08:12;;;;;;;3.80;2.83;;;13.50;81.40;;;;;;2628044;38;20371;-76
2021/09/29 10:28:10;;;;;;;2.43;1.90;;;13.70;79.20;;;;;;2627421;38;20414;-76
2021/09/29 10:33:43;;;;;;;2.83;1.20;;;13.40;78.70;;;;;;2627095;30;21018;-74
2021/09/29 10:44:30;;;;;;;2.20;2.00;;;13.50;80.00;;;;;;2626800;30;20452;-77
2021/09/29 10:47:29;;;;;;;2.40;2.20;;;13.60;78.30;;;;;;2625799;38;20394;-77
2021/09/29 11:08:03;;;;;;;3.07;1.70;;;14.40;77.00;;;;;;2625644;30;20475;-76
2021/09/29 11:11:09;;;;;;;4.63;2.30;;;14.10;78.30;;;;;;2625758;30;20371;-76
2021/09/29 11:30:51;;;;;;;2.20;2.00;;;13.50;81.10;;;;;;2624766;38;20444;-75
2021/09/29 11:33:59;;;;;;;2.70;2.00;;;13.70;79.90;;;;;;2626025;38;20371;-77
2021/09/29 12:10:16;;;;;;;3.30;3.00;;;12.40;83.70;;;;;;2630764;30;20893;-80
2021/09/29 12:13:08;;;;;;;5.90;4.03;;;12.50;84.60;;;;;;2630563;38;20371;-80
2021/09/29 12:15:44;;;;;;;3.73;3.40;;;12.90;84.10;;;;;;2629579;30;20403;-78
2021/09/29 12:18:26;;;;;;;5.23;4.20;;;12.70;83.30;;;;;;2629869;30;20374;-77
2021/09/29 12:20:53;;;;;;;8.03;4.70;;;12.80;83.40;;;;;;2630015;30;20436;-78
2021/09/29 12:23:21;;;;;;;5.30;4.80;;;13.00;84.00;;;;;;2629160;38;20397;-78
2021/09/29 12:26:24;;;;;;;7.70;4.97;;;13.30;82.90;;;;;;2629017;30;20498;-78
2021/09/29 12:29:11;;;;;;;4.90;4.50;;;13.70;81.90;;;;;;2628104;38;21022;-77
2021/09/29 12:37:52;;;;;;;5.67;5.17;;;15.10;77.90;;;;;;2627059;38;20383;-75
2021/09/29 12:40:18;;;;;;;4.70;4.20;;;14.80;77.90;;;;;;2626009;30;20379;-76
2021/09/29 12:42:44;;;;;;;6.00;5.27;;;14.60;79.10;;;;;;2627809;30;20762;-75
2021/09/29 12:45:11;;;;;;;5.77;4.33;;;15.20;78.30;;;;;;2625750;30;20320;-74
2021/09/29 12:47:43;;;;;;;4.30;3.90;;;16.70;73.90;;;;;;2626439;38;20243;-75
2021/09/29 12:50:12;;;;;;;3.53;3.23;;;17.90;70.50;;;;;;2625708;38;20474;-75
2021/09/29 12:52:48;;;;;;;3.13;2.90;;;17.00;68.30;;;;;;2626202;30;20411;-75
2021/09/29 12:55:21;;;;;;;3.00;2.80;;;15.90;71.60;;;;;;2626447;30;20387;-74
2021/09/29 12:57:47;;;;;;;3.90;2.60;;;15.30;74.00;;;;;;2625816;38;20434;-75
2021/09/29 13:00:16;;;;;;;3.07;2.87;;;14.80;75.80;;;;;;2627169;30;20371;-74
2021/09/29 13:02:43;;;;;;;7.93;3.33;;;14.90;76.40;;;;;;2626796;30;20383;-74
2021/09/29 13:05:09;;;;;;;4.60;3.07;;;14.70;76.80;;;;;;2626696;30;20391;-75
2021/09/29 13:07:35;;;;;;;2.80;2.60;;;14.40;75.50;;;;;;2627726;30;20394;-75
2021/09/29 13:10:02;;;;;;;3.70;2.93;;;14.10;75.80;;;;;;2627834;30;20416;-76
2021/09/29 13:12:30;;;;;;;3.77;2.50;;;14.00;76.10;;;;;;2627906;30;20197;-74
2021/09/29 13:14:56;;;;;;;3.00;2.67;;;13.90;77.00;;;;;;2627239;30;20399;-75
2021/09/29 13:17:23;;;;;;;3.53;2.40;;;13.90;77.30;;;;;;2627147;30;20383;-75
2021/09/29 13:20:00;;;;;;;1.50;1.40;;;13.40;76.10;;;;;;2627920;30;20873;-75
2021/09/29 13:22:27;;;;;;;2.13;1.07;;;12.70;72.60;;;;;;2628084;30;20864;-76
2021/09/29 13:25:02;;;;;;;1.30;1.20;;;11.80;72.90;;;;;;2627522;38;20403;-75
2021/09/29 13:35:09;;;;;;;2.90;1.23;;;11.30;76.20;;;;;;2627451;30;20383;-74
2021/09/29 13:38:24;;;;;;;1.77;1.67;;;10.70;78.10;;;;;;2629884;30;20383;-74
2021/09/29 13:41:05;;;;;;;3.23;1.00;;;10.80;79.00;;;;;;2629876;30;20379;-74
2021/09/29 13:43:31;;;;;;;2.60;1.33;;;11.10;78.10;;;;;;2629880;30;20378;-74
2021/09/29 13:45:58;;;;;;;3.53;1.60;;;11.30;78.10;;;;;;2630914;30;20395;-76
2021/09/29 13:48:56;;;;;;;1.33;1.10;;;11.60;77.20;;;;;;2628989;30;20190;-76
2021/09/29 13:51:25;;;;;;;2.20;1.43;;;12.10;78.20;;;;;;2628012;30;21830;-76
2021/09/29 13:54:07;;;;;;;2.03;1.00;;;13.70;74.00;;;;;;2628831;30;20497;-75
2021/09/29 14:14:43;;;;;;;4.50;1.33;;;16.10;65.00;;;;;;2627805;30;20482;-79
2021/09/29 17:28:32;;;;;;;3.57;1.77;;;16.00;62.70;;;;;;2708497;30;52156;-81
2021/09/29 17:31:33;;;;;;;2.53;1.30;;;13.20;69.50;;;;;;2631437;38;20395;-80
2021/09/29 17:53:03;;;;;;;5.50;1.80;;;12.90;68.40;;;;;;2648891;30;20948;-82
2021/09/29 17:55:30;;;;;;;3.80;1.83;;;12.90;67.20;;;;;;2626791;30;20413;-84
2021/09/29 17:57:56;;;;;;;1.53;0.93;;;12.80;68.70;;;;;;2626449;30;20371;-84
2021/09/29 18:00:22;;;;;;;1.23;0.60;;;12.40;68.10;;;;;;2629497;38;20430;-82
2021/09/29 18:07:50;;;;;;;4.03;1.60;;;12.00;71.30;;;;;;2624759;30;20375;-83
2021/09/29 18:10:16;;;;;;;4.47;1.20;;;11.80;72.60;;;;;;2624543;30;20189;-81
2021/09/29 18:12:42;;;;;;;2.30;1.33;;;11.70;72.60;;;;;;2625707;30;20906;-84
2021/09/29 18:15:09;;;;;;;5.33;4.10;;;11.70;72.60;;;;;;2622582;30;20575;-83
2021/09/29 18:17:35;;;;;;;5.60;1.67;;;11.60;72.10;;;;;;2626121;30;21354;-81
2021/09/29 18:20:01;;;;;;;1.77;1.10;;;11.60;72.00;;;;;;2625858;38;20367;-82
2021/09/29 18:22:27;;;;;;;2.50;1.20;;;11.60;71.40;;;;;;2626020;30;20973;-85
2021/09/29 18:24:53;;;;;;;1.40;1.20;;;11.60;70.30;;;;;;2624534;30;20419;-86
2021/09/29 18:27:19;;;;;;;2.90;2.23;;;11.50;69.50;;;;;;2626480;30;20321;-84
2021/09/29 18:29:45;;;;;;;2.50;2.30;;;11.50;68.70;;;;;;2624326;30;20208;-84
2021/09/29 18:32:10;;;;;;;2.47;2.27;;;11.50;69.10;;;;;;2624828;38;20501;-81
2021/09/29 18:34:39;;;;;;;3.13;1.60;;;11.50;70.20;;;;;;2623508;30;20182;-84
2021/09/29 18:37:10;;;;;;;3.97;1.67;;;11.50;70.80;;;;;;2627811;30;20721;-82
2021/09/29 18:39:37;;;;;;;2.33;2.10;;;11.40;71.80;;;;;;2624669;30;20343;-83
2021/09/29 18:42:06;;;;;;;4.43;1.90;;;11.40;72.30;;;;;;2623888;30;20490;-82
2021/09/29 18:44:39;;;;;;;4.13;1.80;;;11.40;73.00;;;;;;2623477;30;20376;-83
2021/09/29 18:47:13;;;;;;;2.17;1.87;;;11.70;72.60;;;;;;2623518;38;20989;-81
2021/09/29 18:49:46;;;;;;;2.10;1.83;;;12.00;72.90;;;;;;2623361;30;20398;-80
2021/09/29 18:52:13;;;;;;;2.87;1.70;;;12.10;72.10;;;;;;2637674;30;20383;-82
2021/09/29 19:07:55;;;;;;;3.40;3.20;;;11.30;77.40;;;;;;2626119;30;20414;-83
2021/09/29 19:10:21;;;;;;;2.83;2.40;;;11.10;77.90;;;;;;2634168;38;20366;-83
2021/09/29 19:12:47;;;;;;;3.77;2.80;;;11.00;78.30;;;;;;2633137;38;20806;-82
2021/09/29 19:15:13;;;;;;;3.40;3.10;;;10.80;79.00;;;;;;2624598;38;21431;-82
2021/09/29 19:17:40;;;;;;;4.20;2.80;;;10.80;79.00;;;;;;2632394;38;20529;-85
2021/09/29 19:20:08;;;;;;;3.10;2.63;;;10.70;79.30;;;;;;2628865;30;20974;-82
2021/09/29 19:22:34;;;;;;;5.10;2.37;;;10.50;79.70;;;;;;2626991;30;20356;-82
2021/09/29 19:25:00;;;;;;;2.50;1.77;;;10.50;79.70;;;;;;2631990;30;20415;-85
2021/09/29 19:27:25;;;;;;;3.57;1.80;;;10.50;79.90;;;;;;2627087;30;20206;-85
2021/09/29 19:29:51;;;;;;;2.43;2.23;;;10.40;79.90;;;;;;2630402;30;20269;-82
2021/09/29 19:32:18;;;;;;;2.80;2.60;;;10.40;79.70;;;;;;2633576;30;21417;-86
2021/09/29 19:34:44;;;;;;;7.03;3.60;;;10.50;79.60;;;;;;2630395;38;20373;-83